»·PEaware :: N904CP KDCA-KJFK

N904CP :: KDCA-KJFK

FLIGHT INFORMATION

Flight Status: Arrived
Operator: Privately registered:
United States
More flights under this callsign
Pilot: Juan D. (11620)
Aircraft: MOONEY M-20 201 202 205 220 ATS MSE
(M20P)
More flights by this aircraft type
Origin: KDCA Ronald Reagan Washington Natl
United States
Destination: KJFK Kennedy Intl
United States
More flights between these airports :: More routes between these airports
Route: PALEO DONIL PANZE ZIGGI
File this flight plan on PilotEdge
Remarks:
Altitude:
(Current/Filed)
11,500ft
Speed:
(Current/Filed)
180kts
Departed: 04-Apr-18 04:50 AM
Arrived: 04-Apr-18 05:59 AM
Distance/Time
Traveled:
184nm/1:09
Distance/Time
To Go:
Arrived

Flight Plot

Page will automatically refresh every two minutes.

Flight plan parsing failed; only flown route is shown


Map Options




Map Legend


Flown Route
Filed Route
Departure Airport
Arrival Airport
Navaid (VOR, NDB)
Fix

Horizontal Profiles

Position Reports

Time Latitude Longitude Heading Altitude Ground
Speed
04-Apr-18 04:48 38.860998 -77.038722 175 16ft 0kts
04-Apr-18 04:49 38.840621 -77.032632 123 1020ft 95kts
04-Apr-18 04:50 38.851412 -77.008366 56 2574ft 93kts
04-Apr-18 04:51 38.863251 -76.982408 70 3888ft 96kts
04-Apr-18 04:52 38.873229 -76.952900 77 5124ft 102kts
04-Apr-18 04:53 38.883011 -76.919462 80 6344ft 108kts
04-Apr-18 04:54 38.891567 -76.888393 81 7342ft 114kts
04-Apr-18 04:55 38.902846 -76.846537 80 8615ft 122kts
04-Apr-18 04:56 38.914135 -76.804253 80 9798ft 129kts
04-Apr-18 04:57 38.925931 -76.759884 80 10919ft 136kts
04-Apr-18 04:58 38.939203 -76.709167 77 11537ft 187kts
04-Apr-18 04:59 38.957863 -76.638687 75 11520ft 220kts
04-Apr-18 05:00 38.977821 -76.563256 75 11519ft 225kts
04-Apr-18 05:01 38.997967 -76.486838 75 11520ft 227kts
04-Apr-18 05:02 39.017909 -76.410947 76 11521ft 229kts
04-Apr-18 05:03 39.029841 -76.335909 96 11513ft 222kts
04-Apr-18 05:04 39.033759 -76.255455 97 11523ft 220kts
04-Apr-18 05:05 39.037555 -76.177425 97 11537ft 218kts
04-Apr-18 05:06 39.041291 -76.099612 98 11553ft 217kts
04-Apr-18 05:07 39.044960 -76.021983 98 11558ft 217kts
04-Apr-18 05:08 39.048572 -75.944558 98 11557ft 217kts
04-Apr-18 05:09 39.052139 -75.867024 98 11558ft 217kts
04-Apr-18 05:10 39.055653 -75.789510 98 11551ft 218kts
04-Apr-18 05:11 39.059142 -75.711429 98 11538ft 218kts
04-Apr-18 05:12 39.062559 -75.633787 98 11525ft 218kts
04-Apr-18 05:13 39.065932 -75.555871 98 11500ft 218kts
04-Apr-18 05:14 39.069268 -75.477830 98 11501ft 218kts
04-Apr-18 05:15 39.072548 -75.399680 98 11502ft 218kts
04-Apr-18 05:16 39.075766 -75.322053 99 11498ft 217kts
04-Apr-18 05:17 39.105408 -75.251062 58 11500ft 233kts
04-Apr-18 05:18 39.141707 -75.183411 58 11505ft 230kts
04-Apr-18 05:19 39.178108 -75.115262 58 11508ft 230kts
04-Apr-18 05:20 39.214504 -75.046962 58 11512ft 229kts
04-Apr-18 05:21 39.250505 -74.979258 58 11517ft 228kts
04-Apr-18 05:22 39.286279 -74.911839 58 11518ft 228kts
04-Apr-18 05:23 39.321922 -74.844525 58 11515ft 227kts
04-Apr-18 05:24 39.357593 -74.777027 58 11510ft 227kts
04-Apr-18 05:25 39.393072 -74.709741 58 11510ft 227kts
04-Apr-18 05:26 39.429356 -74.640712 58 11198ft 237kts
04-Apr-18 05:27 39.466389 -74.570149 58 10834ft 237kts
04-Apr-18 05:28 39.503165 -74.499937 58 10489ft 236kts
04-Apr-18 05:29 39.539491 -74.430434 59 10108ft 237kts
04-Apr-18 05:30 39.576392 -74.359665 59 9635ft 236kts
04-Apr-18 05:31 39.612809 -74.289677 59 9141ft 233kts
04-Apr-18 05:32 39.648735 -74.220477 60 8652ft 230kts
04-Apr-18 05:33 39.691016 -74.161809 12 8154ft 226kts
04-Apr-18 05:34 39.750802 -74.137408 13 7688ft 224kts
04-Apr-18 05:35 39.809634 -74.113275 15 7239ft 222kts
04-Apr-18 05:36 39.865328 -74.090399 14 6817ft 220kts
04-Apr-18 05:37 39.926685 -74.065180 14 6350ft 218kts
04-Apr-18 05:38 39.981048 -74.032372 35 5902ft 217kts
04-Apr-18 05:39 40.030822 -73.988211 34 5478ft 215kts
04-Apr-18 05:40 40.080009 -73.944500 35 5077ft 216kts
04-Apr-18 05:41 40.128114 -73.901730 35 4996ft 206kts
04-Apr-18 05:42 40.174744 -73.860251 36 4999ft 201kts
04-Apr-18 05:43 40.220510 -73.819384 38 4868ft 201kts
04-Apr-18 05:44 40.266339 -73.778360 38 4396ft 201kts
04-Apr-18 05:45 40.311856 -73.737570 38 3768ft 195kts
04-Apr-18 05:46 40.355688 -73.698270 37 3359ft 183kts
04-Apr-18 05:47 40.396685 -73.661451 38 3377ft 176kts
04-Apr-18 05:48 40.437290 -73.624875 38 3422ft 177kts
04-Apr-18 05:49 40.482129 -73.634243 357 3430ft 185kts
04-Apr-18 05:50 40.532269 -73.638838 323 3279ft 194kts
04-Apr-18 05:51 40.532822 -73.701112 262 2231ft 174kts
04-Apr-18 05:52 40.537931 -73.752566 285 1694ft 116kts
04-Apr-18 05:53 40.549062 -73.787706 287 1418ft 83kts
04-Apr-18 05:54 40.558575 -73.812446 19 1733ft 86kts
04-Apr-18 05:55 40.584207 -73.810971 26 874ft 92kts
04-Apr-18 05:56 40.606236 -73.801849 32 495ft 81kts
04-Apr-18 05:57 40.625442 -73.786133 31 15ft 66kts
04-Apr-18 05:58 40.626829 -73.783101 192 15ft 0kts

Navigation Log

Ident Type
Flight plan parsing failed, navigation log unavailable